Loyalhanna, Pennsylvania
Current Conditions -  °F | °C
As of 6:50 PM on Sunday 23 Nov 2014 (Local Time) from KLBE Reporting Station
Broken Clouds Broken Clouds  
Wind Chill: 57°   Ceiling: 15000
Heat Index: 57°   Visibility: 15mi
Dew Point: 36°   Wind: 12mph
Humidity: 44%   Direction: 160°SSE
Pressure: 29.82"   Gusts: NA
Location:  40.32°N, 79.36°W
Report Text: KLBE 232350Z 16010KT 15SM BKN150 BKN200 14/02 A2982
Loading
Personal Weather Stations






























Interactive Weather Map New forecast layout! Learn more

10-Day Weather Forecast

Advertisements
Track Severe Weather on mobile